Dorothy Ann — WDE8761 — position and weather

sailwx.info

Track history (hours):
 
Tides and Currents Weather Stations Pressure Air Temp Water Temp Dewpoint Dewpoint Depression Visibility Wind Speed Wind Dir Waves Ship Positions

Dorothy Ann

Owner: THE INTERLAKE STEAMSHIP COMPANY, Middleburg Heights, OH. More information available from US FCC via Universal Licensing System and Coast Guard Vessel Documentation Center.

Last reported at 2017-Mar-14 08:00 UTC. Time now 2017-Mar-23 06:10 UTC.
Position N 41°30' W 081°42'.
Warning: this ship's position is 8 days out of date.

Length 215 m; draft 5.9 m.

Type: Cargo ship. MMSI: 367409260.

Wind from 130 at 61 knots

Barometer 1016.4 mb
Air temperature -3.9 ° C
Water temperature 15.0 ° C

Date/timePositionNaut miles runAvg speedWind from/ knotsBaromVisibWave heightAir tempDewpointWater temp
2017-Mar-14 08:00N 41°30' W 081°42'0 0.0 130 / 611016.4 -3.9 15.0
2017-Mar-14 07:00N 41°30' W 081°42'0 0.0 110 / 321017.1 -3.5 15.0
2017-Mar-14 06:00N 41°30' W 081°42'0 0.0 320 / 151017.1 -3.1 15.1
2017-Mar-14 05:00N 41°30' W 081°42'0 0.0 080 / 161017.8 -3.0 15.1
2017-Mar-14 04:00N 41°30' W 081°42'0 0.0 070 / 91018.1 -2.7 16.9
2017-Mar-14 03:00N 41°30' W 081°42'0 0.0 020 / 61019.1 -2.7 16.9
2017-Mar-14 02:00N 41°30' W 081°42'0 0.0 060 / 71019.8 -3.3 16.5
2017-Mar-14 01:00N 41°30' W 081°42'0 0.0 050 / 81020.1 -2.9 16.7
2017-Mar-14 00:00N 41°30' W 081°42'0 0.0 340 / 71020.8 -4.2 16.4
2017-Mar-13 23:00N 41°30' W 081°42'0 0.0 1021.2 -3.7 16.4
2017-Mar-13 22:00N 41°30' W 081°42'0 0.0 010 / 61021.2 -1.7 16.4
2017-Mar-13 21:00N 41°30' W 081°42'0 0.0 080 / 91021.5 -1.2 16.5
2017-Mar-13 20:00N 41°30' W 081°42'0 0.0 080 / 51021.5 -0.9 16.9
2017-Mar-13 19:00N 41°30' W 081°42'0 0.0 070 / 61021.8 -1.2 17.0
2017-Mar-13 18:00N 41°30' W 081°42'0 0.0 110 / 91023.2 -1.6 16.7
2017-Mar-13 17:00N 41°30' W 081°42'0 0.0 050 / 141024.2 -2.5 15.2
2017-Mar-13 16:00N 41°30' W 081°42'0 0.0 020 / 101024.9 -3.5 15.3
2017-Mar-13 15:00N 41°30' W 081°42'0 0.0 030 / 101026.2 -3.6 15.4
2017-Mar-13 14:00N 41°30' W 081°42'0 0.0 100 / 91027.3 -4.3 15.5
2017-Mar-13 13:00N 41°30' W 081°42'0 0.0 110 / 101027.9 -5.0 15.6
2017-Mar-13 12:00N 41°30' W 081°42'0 0.0 110 / 141027.9 -5.2 15.8
2017-Mar-13 11:00N 41°30' W 081°42'0 0.0 100 / 131028.6 -5.0 16.0
2017-Mar-13 10:00N 41°30' W 081°42'0 0.0 090 / 141028.6 -5.1 15.9
2017-Mar-13 09:00N 41°30' W 081°42'0 0.0 110 / 131028.9 -4.9 15.9
2017-Mar-13 08:00N 41°30' W 081°42'0 0.0 120 / 121028.6 -5.2 15.9
2017-Mar-13 07:00N 41°30' W 081°42'0 0.0 110 / 81029.6 -4.7 15.8
2017-Mar-13 06:00N 41°30' W 081°42'0 0.0 130 / 61030.3 -4.8 15.6
2017-Mar-13 05:00N 41°30' W 081°42'0 0.0 140 / 51030.0 -4.4 15.7
2017-Mar-13 04:00N 41°30' W 081°42'0 0.0 130 / 81030.0 -4.4 15.7
2017-Mar-13 03:00N 41°30' W 081°42'0 0.0 120 / 81030.3 -4.4 15.7
2017-Mar-13 02:00N 41°30' W 081°42'0 0.0 130 / 81030.3 -4.5 15.4
2017-Mar-13 01:00N 41°30' W 081°42'0 0.0 140 / 51030.6 -4.6 15.2
2017-Mar-13 00:00N 41°30' W 081°42'0 0.0 170 / 11031.0 -4.9 15.2
2017-Mar-12 23:00N 41°30' W 081°42'0 0.0 1031.3 -4.8 15.5
2017-Mar-12 22:00N 41°30' W 081°42'0 0.0 320 / 61031.7 -4.6 16.8
2017-Mar-12 21:00N 41°30' W 081°42'0 0.0 310 / 61031.3 -4.9 16.8
2017-Mar-12 20:00N 41°30' W 081°42'0 0.0 280 / 51031.0 -4.8 16.8
2017-Mar-12 19:00N 41°30' W 081°42'0 0.0 350 / 111031.0 -5.5 16.4
2017-Mar-12 18:00N 41°30' W 081°42'0 0.0 340 / 91031.3 -4.2 16.2
2017-Mar-12 17:00N 41°30' W 081°42'0 0.0 290 / 91031.7 -4.5 16.0
2017-Mar-12 16:00N 41°30' W 081°42'0 0.0 340 / 81031.3 -5.2 15.9
2017-Mar-12 15:00N 41°30' W 081°42'0 0.0 330 / 101031.0 -5.8 16.1
2017-Mar-12 14:00N 41°30' W 081°42'0 0.0 340 / 71031.0 -5.5 16.1
2017-Mar-12 13:00N 41°30' W 081°42'0 0.0 340 / 121030.3 -5.8 16.2
2017-Mar-12 12:00N 41°30' W 081°42'0 0.0 340 / 101029.6 -5.7 15.9
2017-Mar-12 11:00N 41°30' W 081°42'0 0.0 330 / 91029.3 -5.6 16.3
2017-Mar-12 10:00N 41°30' W 081°42'0 0.0 340 / 101029.3 -5.4 16.3
2017-Mar-12 09:00N 41°30' W 081°42'0 0.0 330 / 81028.6 -4.2 16.7
2017-Mar-12 08:00N 41°30' W 081°42'0 0.0 040 / 81028.6 -4.8 16.6
2017-Mar-12 07:00N 41°30' W 081°42'0 0.0 350 / 101028.9 -4.2 16.6
2017-Mar-12 06:00N 41°30' W 081°42'0 0.0 330 / 91028.3 -3.3 16.9
2017-Mar-12 05:00N 41°30' W 081°42'0 0.0 360 / 161027.9 -3.1 14.8
2017-Mar-12 03:00N 41°30' W 081°42'0 0.0 220 / 71028.6 -3.7 15.0
2017-Mar-12 02:00N 41°30' W 081°42'0 0.0 220 / 61028.6 -3.8 15.0
2017-Mar-12 01:00N 41°30' W 081°42'0 0.0 210 / 71028.3 -3.9 15.1
2017-Mar-12 00:00N 41°30' W 081°42'0 0.0 300 / 131028.3 -3.8 14.8
2017-Mar-11 23:00N 41°30' W 081°42'0 0.0 310 / 141028.3 -4.1 15.1
2017-Mar-11 22:00N 41°30' W 081°42'0 0.0 320 / 121028.6 -4.5 15.1
2017-Mar-11 21:00N 41°30' W 081°42'0 0.0 300 / 161029.3 -5.1 15.1
2017-Mar-11 20:00N 41°30' W 081°42'0 0.0 280 / 141029.6 -5.7 15.1
2017-Mar-11 19:00N 41°30' W 081°42'0 0.0 300 / 191029.6 -6.5 15.0
2017-Mar-11 18:00N 41°30' W 081°42'0 0.0 290 / 171029.6 -6.6 15.1
2017-Mar-11 17:00N 41°30' W 081°42'0 0.0 300 / 201029.6 -7.0 15.0
2017-Mar-11 16:00N 41°30' W 081°42'0 0.0 300 / 231029.3 -7.1 15.0
2017-Mar-11 15:00N 41°30' W 081°42'0 0.0 310 / 261029.3 -7.7 15.2
2017-Mar-11 14:00N 41°30' W 081°42'0 0.0 310 / 311028.3 -7.5 15.0
2017-Mar-11 13:00N 41°30' W 081°42'0 0.0 320 / 251028.6 -7.5 15.0
2017-Mar-11 12:00N 41°30' W 081°42'0 0.0 300 / 231027.9 -7.7 15.2
2017-Mar-11 11:00N 41°30' W 081°42'0 0.0 310 / 241027.6 -7.3 15.2
2017-Mar-11 10:00N 41°30' W 081°42'0 0.0 330 / 201027.6 -7.6 15.4
2017-Mar-11 09:00N 41°30' W 081°42'0 0.0 320 / 201026.9 -7.9 15.4
2017-Mar-11 08:00N 41°30' W 081°42'0 0.0 320 / 221026.9 -7.7 15.5
2017-Mar-11 07:00N 41°30' W 081°42'0 0.0 340 / 191026.2 -7.2 15.5
2017-Mar-11 06:00N 41°30' W 081°42'0 0.0 330 / 211026.2 -6.6 15.6
2017-Mar-11 05:00N 41°30' W 081°42'0 0.0 320 / 231025.9 -6.2 15.7
2017-Mar-11 03:00N 41°30' W 081°42'0 0.0 330 / 241025.2 -4.6 15.9
2017-Mar-11 02:00N 41°30' W 081°42'0 0.0 320 / 271024.2 -4.1 16.0
2017-Mar-11 01:00N 41°30' W 081°42'0 0.0 340 / 251024.2 -3.2 15.7
2017-Mar-11 00:00N 41°30' W 081°42'0 0.0 320 / 221023.9 -3.3 15.6
2017-Mar-10 23:00N 41°30' W 081°42'0 0.0 320 / 241023.2 -3.4 15.4
2017-Mar-10 22:00N 41°30' W 081°42'0 0.0 340 / 201023.5 -3.2 15.5
2017-Mar-10 21:00N 41°30' W 081°42'0 0.0 310 / 261022.9 -3.4 15.5
2017-Mar-10 20:00N 41°30' W 081°42'0 0.0 340 / 241022.9 -4.0 15.7
2017-Mar-10 19:00N 41°30' W 081°42'0 0.0 300 / 211022.2 -2.7 16.0
2017-Mar-10 18:00N 41°30' W 081°42'0 0.0 320 / 211022.5 -3.2 15.8
2017-Mar-10 17:00N 41°30' W 081°42'0 0.0 330 / 261022.2 -3.2 15.9
2017-Mar-10 16:00N 41°30' W 081°42'0 0.0 340 / 221021.8 -3.7 15.7
2017-Mar-10 15:00N 41°30' W 081°42'0 0.0 340 / 201021.2 -1.4 15.6
2017-Mar-10 14:00N 41°30' W 081°42'0 0.0 350 / 251020.5 -1.3 15.8
2017-Mar-10 13:00N 41°30' W 081°42'0 0.0 1019.8 -0.4 15.7
2017-Mar-10 12:00N 41°30' W 081°42'0 0.0 1019.1 -0.3 15.8
2017-Mar-10 11:00N 41°30' W 081°42'0 0.0 360 / 201018.5 -0.3 15.9
2017-Mar-10 10:00N 41°30' W 081°42'0 0.0 350 / 181017.8 -0.6 15.8
2017-Mar-10 09:00N 41°30' W 081°42'0 0.0 330 / 121016.4 1.3 15.8
2017-Mar-10 08:00N 41°30' W 081°42'0 0.0 350 / 71016.1 1.5 15.7
2017-Mar-10 07:00N 41°30' W 081°42'0 0.0 330 / 81016.4 1.4 15.7
2017-Mar-10 06:00N 41°30' W 081°42'0 0.0 330 / 81016.1 1.4 15.9
2017-Mar-10 05:00N 41°30' W 081°42'0 0.0 210 / 61017.1 1.6 16.2
2017-Mar-10 03:00N 41°30' W 081°42'0 0.0 300 / 21019.1 1.0 15.7
2017-Mar-10 02:00N 41°30' W 081°42'0 0.0 120 / 341019.1 0.5 15.4
2017-Mar-10 01:00N 41°30' W 081°42'0 0.0 030 / 151019.8 0.8 15.5
2017-Mar-10 00:00N 41°30' W 081°42'0 0.0 010 / 151019.8 1.7 15.7
2017-Mar-09 23:00N 41°30' W 081°42'0 0.0 050 / 121019.8 2.8 15.8
2017-Mar-09 22:00N 41°30' W 081°42'0 0.0 040 / 121019.5 2.6 15.6
2017-Mar-09 21:00N 41°30' W 081°42'0 0.0 020 / 61019.8 2.8 15.6
2017-Mar-09 20:00N 41°30' W 081°42'0 0.0 050 / 81019.8 2.4 15.6
2017-Mar-09 19:00N 41°30' W 081°42'0 0.0 340 / 81020.1 3.4 15.6
2017-Mar-09 18:00N 41°30' W 081°42'0 0.0 350 / 61021.2 3.5 15.5
2017-Mar-09 17:00N 41°30' W 081°42'0 0.0 330 / 51021.5 3.1 15.4
2017-Mar-09 16:00N 41°30' W 081°42'0 0.0 300 / 81021.8 2.9 15.3
2017-Mar-09 15:00N 41°30' W 081°42'0 0.0 310 / 121022.2 2.9 15.3
2017-Mar-09 14:00N 41°30' W 081°42'0 0.0 290 / 51021.8 3.0 15.3
2017-Mar-09 13:00N 41°30' W 081°42'0 0.0 260 / 31022.2 2.8 15.4
2017-Mar-09 12:00N 41°30' W 081°42'0 0.0 320 / 101021.5 3.0 15.6
2017-Mar-09 11:00N 41°30' W 081°42'0 0.0 310 / 151020.8 3.7 15.2
2017-Mar-09 10:00N 41°30' W 081°42'0 0.0 280 / 161020.1 5.0 15.2
2017-Mar-09 09:00N 41°30' W 081°42'0 0.0 270 / 191019.8 6.5 15.2
2017-Mar-09 08:00N 41°30' W 081°42'0 0.0 280 / 171019.5 7.0 15.1
2017-Mar-09 07:00N 41°30' W 081°42'0 0.0 280 / 241019.1 7.9 15.0
2017-Mar-09 06:00N 41°30' W 081°42'0 0.0 270 / 211018.8 8.4 15.1
2017-Mar-09 05:00N 41°30' W 081°42'0 0.0 280 / 201018.5 9.1 15.2
2017-Mar-09 04:00N 41°30' W 081°42'0 0.0 270 / 201018.1 9.3 15.3
2017-Mar-09 03:00N 41°30' W 081°42'0 0.0 260 / 271017.1 9.8 15.2
2017-Mar-09 02:00N 41°30' W 081°42'0 0.0 250 / 281016.1 10.5 15.3
2017-Mar-09 01:00N 41°30' W 081°42'0 0.0 270 / 211015.4 11.1 15.4
2017-Mar-09 00:00N 41°30' W 081°42'0 0.0 270 / 241014.7 11.4 15.4
2017-Mar-08 23:00N 41°30' W 081°42'0 0.0 250 / 251013.4 11.8 15.5
2017-Mar-08 22:00N 41°30' W 081°42'0 0.0 270 / 311012.7 11.9 15.6
2017-Mar-08 21:00N 41°30' W 081°42'0 0.0 260 / 341011.7 12.3 15.6
2017-Mar-08 20:00N 41°30' W 081°42'0 0.0 240 / 321012.0 12.3 15.4
2017-Mar-08 19:00N 41°30' W 081°42'0 0.0 250 / 321012.0 11.5 15.2
2017-Mar-08 18:00N 41°30' W 081°42'0 0.0 250 / 281013.4 10.9 15.2
2017-Mar-08 17:00N 41°30' W 081°42'0 0.0 240 / 341013.7 10.5 15.8
2017-Mar-08 16:00N 41°30' W 081°42'0 0.0 240 / 251014.4 10.0 15.9
2017-Mar-08 15:00N 41°30' W 081°42'0 0.0 240 / 201015.4 8.8 16.0
2017-Mar-08 14:00N 41°30' W 081°42'0 0.0 230 / 211015.7 7.8 16.1
2017-Mar-08 13:00N 41°30' W 081°42'0 0.0 200 / 151015.7 6.6 16.1
2017-Mar-08 12:00N 41°30' W 081°42'0 0.0 240 / 151016.8 6.3 16.4
2017-Mar-08 11:00N 41°30' W 081°42'0 0.0 200 / 151015.7 5.7 16.5
2017-Mar-08 10:00N 41°30' W 081°42'0 0.0 210 / 161015.7 5.7 16.6
2017-Mar-08 09:00N 41°30' W 081°42'0 0.0 200 / 151016.1 5.5 16.6
2017-Mar-08 08:00N 41°30' W 081°42'0 0.0 200 / 131016.8 5.3 16.1
2017-Mar-08 07:00N 41°30' W 081°42'0 0.0 230 / 91017.4 6.5 16.0
2017-Mar-08 06:00N 41°30' W 081°42'0 0.0 240 / 121016.8 7.4 16.1
2017-Mar-08 05:00N 41°30' W 081°42'0 0.0 260 / 121016.4 8.1 16.0
2017-Mar-08 04:00N 41°30' W 081°42'0 0.0 270 / 121015.7 8.6 16.2
2017-Mar-08 03:00N 41°30' W 081°42'0 0.0 270 / 141015.7 8.1 16.1
2017-Mar-08 02:00N 41°30' W 081°42'0 0.0 280 / 161015.1 8.2 16.2
2017-Mar-08 01:00N 41°30' W 081°42'0 0.0 270 / 151015.1 9.3 16.2
2017-Mar-08 00:00N 41°30' W 081°42'0 0.0 250 / 151014.0 8.9 16.2
2017-Mar-07 23:00N 41°30' W 081°42'0 0.0 270 / 91013.0 7.2 16.0
2017-Mar-07 22:00N 41°30' W 081°42'0 0.0 220 / 191012.0 12.0 16.2
2017-Mar-07 21:00N 41°30' W 081°42'0 0.0 190 / 61011.0 11.6 15.9
2017-Mar-07 20:00N 41°30' W 081°42'0 0.0 210 / 171011.0 14.8 16.2
2017-Mar-07 19:00N 41°30' W 081°42'0 0.0 200 / 181011.0 15.4 16.0
2017-Mar-07 18:00N 41°30' W 081°42'0 0.0 180 / 211010.7 14.7 16.1
2017-Mar-07 17:00N 41°30' W 081°42'0 0.0 200 / 221012.0 13.7 16.2
2017-Mar-07 16:00N 41°30' W 081°42'0 0.0 200 / 221012.4 14.2 16.3
2017-Mar-07 15:00N 41°30' W 081°42'0 0.0 200 / 221013.4 13.7 16.5
2017-Mar-07 14:00N 41°30' W 081°42'0 0.0 200 / 211013.7 13.3 16.4
2017-Mar-07 13:00N 41°30' W 081°42'0 0.0 200 / 201012.7 13.1 16.3
2017-Mar-07 12:00N 41°30' W 081°42'0 0.0 180 / 191012.0 13.6 16.2
2017-Mar-07 11:00N 41°30' W 081°42'0 0.0 190 / 201012.4 14.5 16.0
2017-Mar-07 10:00N 41°30' W 081°42'0 0.0 180 / 231012.0 14.5 15.8
2017-Mar-07 09:00N 41°30' W 081°42'0 0.0 180 / 221013.0 14.2 15.9
2017-Mar-07 08:00N 41°30' W 081°42'0 0.0 180 / 181014.4 13.4 16.3
2017-Mar-07 07:00N 41°30' W 081°42'0 0.0 180 / 181015.1 13.3 16.1
2017-Mar-07 06:00N 41°30' W 081°42'0 0.0 180 / 131015.1 12.5 17.2
2017-Mar-07 05:00N 41°30' W 081°42'0 0.0 130 / 91016.1 11.9 17.9
2017-Mar-07 04:00N 41°30' W 081°42'0 0.0 200 / 121017.4 12.9 18.2
2017-Mar-07 03:00N 41°30' W 081°42'0 0.0 180 / 121018.1 11.7 18.1
2017-Mar-07 02:00N 41°30' W 081°42'0 0.0 160 / 81018.8 12.2 17.7
2017-Mar-07 01:00N 41°30' W 081°42'0 0.0 140 / 111019.1 11.8 17.7
2017-Mar-07 00:00N 41°30' W 081°42'0 0.0 160 / 101019.5 11.7 17.7
2017-Mar-06 23:00N 41°30' W 081°42'0 0.0 140 / 101019.8 11.3 17.7
2017-Mar-06 22:00N 41°30' W 081°42'0 0.0 200 / 131020.1 12.0 17.6
2017-Mar-06 21:00N 41°30' W 081°42'0 0.0 190 / 141020.5 12.1 17.3
2017-Mar-06 20:00N 41°30' W 081°42'0 0.0 150 / 91020.5 12.2 16.8
2017-Mar-06 19:00N 41°30' W 081°42'0 0.0 200 / 171021.2 11.9 15.5
2017-Mar-06 18:00N 41°30' W 081°42'0 0.0 200 / 191021.5 14.1 15.8
2017-Mar-06 17:00N 41°30' W 081°42'0 0.0 200 / 141022.2 13.9 15.7
2017-Mar-06 16:00N 41°30' W 081°42'0 0.0 180 / 151022.9 13.3 15.8
2017-Mar-06 15:00N 41°30' W 081°42'0 0.0 160 / 101023.2 11.0 15.9
2017-Mar-06 14:00N 41°30' W 081°42'0 0.0 150 / 101023.5 10.0 15.6
2017-Mar-06 13:00N 41°30' W 081°42'0 0.0 180 / 101023.9 10.5 15.6
2017-Mar-06 12:00N 41°30' W 081°42'0 0.0 180 / 101023.9 10.0 15.7
2017-Mar-06 11:00N 41°30' W 081°42'0 0.0 160 / 101023.5 8.5 15.3
2017-Mar-06 10:00N 41°30' W 081°42'0 0.0 150 / 121023.2 8.2 15.4
2017-Mar-06 09:00N 41°30' W 081°42'0 0.0 150 / 91023.2 8.2 15.4
2017-Mar-06 08:00N 41°30' W 081°42'0 0.0 150 / 111023.5 7.6 15.6
2017-Mar-06 07:00N 41°30' W 081°42'0 0.0 150 / 151023.9 7.2 16.0
2017-Mar-06 06:00N 41°30' W 081°42'0 0.0 160 / 151024.2 7.1 16.1
2017-Mar-06 05:00N 41°30' W 081°42'0 0.0 150 / 151024.2 6.8 16.0
2017-Mar-06 04:00N 41°30' W 081°42'0 0.0 150 / 151024.9 6.6 16.1
2017-Mar-06 03:00N 41°30' W 081°42'0 0.0 160 / 151025.6 6.7 16.3
2017-Mar-06 02:00N 41°30' W 081°42'0 0.0 150 / 161026.2 6.9 16.0
2017-Mar-06 01:00N 41°30' W 081°42'0 0.0 150 / 171026.6 7.1 15.8
2017-Mar-06 00:00N 41°30' W 081°42'0 0.0 140 / 161026.6 7.6 15.8
2017-Mar-05 23:00N 41°30' W 081°42'0 0.0 160 / 101026.9 7.9 15.7
2017-Mar-05 22:00N 41°30' W 081°42'0 0.0 150 / 111027.6 8.2 15.9
2017-Mar-05 21:00N 41°30' W 081°42'0 0.0 150 / 121028.3 7.6 15.9
2017-Mar-05 20:00N 41°30' W 081°42'0 0.0 140 / 121028.6 6.3 15.8
2017-Mar-05 19:00N 41°30' W 081°42'0 0.0 140 / 81030.0 5.1 15.9
2017-Mar-05 18:00N 41°30' W 081°42'0 0.0 140 / 101031.3 3.6 16.1
2017-Mar-05 17:00N 41°30' W 081°42'0 0.0 140 / 121033.0 1.1 16.6
2017-Mar-05 16:00N 41°30' W 081°42'0 0.0 130 / 151033.7 -1.2 16.2
2017-Mar-05 15:00N 41°30' W 081°42'0 0.0 150 / 181034.7 -3.7 16.2
2017-Mar-05 14:00N 41°30' W 081°42'0 0.0 140 / 161034.7 -5.0 16.2
2017-Mar-05 13:00N 41°30' W 081°42'0 0.0 150 / 181035.0 -6.2 16.0
2017-Mar-05 12:00N 41°30' W 081°42'0 0.0 140 / 171035.0 -6.5 15.6
2017-Mar-05 11:00N 41°30' W 081°42'0 0.0 140 / 111035.4 -6.6 15.6
2017-Mar-05 10:00N 41°30' W 081°42'0 0.0 130 / 141035.4 -6.6 15.6
2017-Mar-05 09:00N 41°30' W 081°42'0 0.0 130 / 161035.7 -6.3 15.4
2017-Mar-05 08:00N 41°30' W 081°42'0 0.0 140 / 91036.7 -6.1 15.3
2017-Mar-05 07:00N 41°30' W 081°42'0 0.0 130 / 101037.4 -4.3 17.0
2017-Mar-05 06:00N 41°30' W 081°42'0 0.0 100 / 61037.8 -5.8 16.7
2017-Mar-05 05:00N 41°30' W 081°42'0 0.0 120 / 51037.8 -5.7 16.5
2017-Mar-05 04:00N 41°30' W 081°42'0 0.0 070 / 41037.8 -4.9 17.1
2017-Mar-05 03:00N 41°30' W 081°42'0 0.0 340 / 41037.8 -4.0 16.7
2017-Mar-05 02:00N 41°30' W 081°42'0 0.0 330 / 41037.8 -4.7 16.7
2017-Mar-05 01:00N 41°30' W 081°42'0 0.0 040 / 91037.4 -4.3 16.9
2017-Mar-05 00:00N 41°30' W 081°42'0 0.0 040 / 61037.4 -3.6 16.5
2017-Mar-04 23:00N 41°30' W 081°42'0 0.0 030 / 41037.8 -3.2 16.4
2017-Mar-04 22:00N 41°30' W 081°42'0 0.0 040 / 91037.8 -3.5 16.9
2017-Mar-04 21:00N 41°30' W 081°42'0 0.0 360 / 101037.8 -3.5 16.7
2017-Mar-04 20:00N 41°30' W 081°42'0 0.0 040 / 101037.8 -4.6 16.2
2017-Mar-04 19:00N 41°30' W 081°42'0 0.0 010 / 71038.8 -4.5 15.0
2017-Mar-04 18:00N 41°30' W 081°42'0 0.0 010 / 71039.8 -4.5 15.2
2017-Mar-04 17:00N 41°30' W 081°42'0 0.0 010 / 51040.1 -4.3 15.0
2017-Mar-04 16:00N 41°30' W 081°42'0 0.0 010 / 61040.1 -5.0 15.1
2017-Mar-04 15:00N 41°30' W 081°42'0 0.0 020 / 81039.8 -5.3 14.9
2017-Mar-04 14:00N 41°30' W 081°42'0 0.0 360 / 91039.1 -5.2 15.2
2017-Mar-04 13:00N 41°30' W 081°42'0 0.0 360 / 121038.1 -5.4 15.2
2017-Mar-04 12:00N 41°30' W 081°42'0 0.0 350 / 91037.4 -5.6 15.2
2017-Mar-04 11:00N 41°30' W 081°42'0 0.0 350 / 131036.7 -5.1 15.1
2017-Mar-04 10:00N 41°30' W 081°42'0 0.0 340 / 151036.4 -4.7 15.2
2017-Mar-04 09:00N 41°30' W 081°42'0 0.0 330 / 121036.1 -4.1 18.0
2017-Mar-04 08:00N 41°30' W 081°42'   170 / 81035.7 -3.6 17.4
Track history (hours):
 
Tides and Currents Weather Stations Pressure Air Temp Water Temp Dewpoint Dewpoint Depression Visibility Wind Speed Wind Dir Waves Ship Positions

Dorothy Ann

Owner: THE INTERLAKE STEAMSHIP COMPANY, Middleburg Heights, OH. More information available from US FCC via Universal Licensing System and Coast Guard Vessel Documentation Center.

Last reported at 2017-Mar-14 08:00 UTC. Time now 2017-Mar-23 06:10 UTC.
Position N 41°30' W 081°42'.
Warning: this ship's position is 8 days out of date.

Length 215 m; draft 5.9 m.

Type: Cargo ship. MMSI: 367409260.

Wind from 130 at 61 knots

Barometer 1016.4 mb
Air temperature -3.9 ° C
Water temperature 15.0 ° C

Date/timePositionNaut miles runAvg speedWind from/ knotsBaromVisibWave heightAir tempDewpointWater temp
2017-Mar-14 08:00N 41°30' W 081°42'0 0.0 130 / 611016.4 -3.9 15.0
2017-Mar-14 07:00N 41°30' W 081°42'0 0.0 110 / 321017.1 -3.5 15.0
2017-Mar-14 06:00N 41°30' W 081°42'0 0.0 320 / 151017.1 -3.1 15.1
2017-Mar-14 05:00N 41°30' W 081°42'0 0.0 080 / 161017.8 -3.0 15.1
2017-Mar-14 04:00N 41°30' W 081°42'0 0.0 070 / 91018.1 -2.7 16.9
2017-Mar-14 03:00N 41°30' W 081°42'0 0.0 020 / 61019.1 -2.7 16.9
2017-Mar-14 02:00N 41°30' W 081°42'0 0.0 060 / 71019.8 -3.3 16.5
2017-Mar-14 01:00N 41°30' W 081°42'0 0.0 050 / 81020.1 -2.9 16.7
2017-Mar-14 00:00N 41°30' W 081°42'0 0.0 340 / 71020.8 -4.2 16.4
2017-Mar-13 23:00N 41°30' W 081°42'0 0.0 1021.2 -3.7 16.4
2017-Mar-13 22:00N 41°30' W 081°42'0 0.0 010 / 61021.2 -1.7 16.4
2017-Mar-13 21:00N 41°30' W 081°42'0 0.0 080 / 91021.5 -1.2 16.5
2017-Mar-13 20:00N 41°30' W 081°42'0 0.0 080 / 51021.5 -0.9 16.9
2017-Mar-13 19:00N 41°30' W 081°42'0 0.0 070 / 61021.8 -1.2 17.0
2017-Mar-13 18:00N 41°30' W 081°42'0 0.0 110 / 91023.2 -1.6 16.7
2017-Mar-13 17:00N 41°30' W 081°42'0 0.0 050 / 141024.2 -2.5 15.2
2017-Mar-13 16:00N 41°30' W 081°42'0 0.0 020 / 101024.9 -3.5 15.3
2017-Mar-13 15:00N 41°30' W 081°42'0 0.0 030 / 101026.2 -3.6 15.4
2017-Mar-13 14:00N 41°30' W 081°42'0 0.0 100 / 91027.3 -4.3 15.5
2017-Mar-13 13:00N 41°30' W 081°42'0 0.0 110 / 101027.9 -5.0 15.6
2017-Mar-13 12:00N 41°30' W 081°42'0 0.0 110 / 141027.9 -5.2 15.8
2017-Mar-13 11:00N 41°30' W 081°42'0 0.0 100 / 131028.6 -5.0 16.0
2017-Mar-13 10:00N 41°30' W 081°42'0 0.0 090 / 141028.6 -5.1 15.9
2017-Mar-13 09:00N 41°30' W 081°42'0 0.0 110 / 131028.9 -4.9 15.9
2017-Mar-13 08:00N 41°30' W 081°42'0 0.0 120 / 121028.6 -5.2 15.9
2017-Mar-13 07:00N 41°30' W 081°42'0 0.0 110 / 81029.6 -4.7 15.8
2017-Mar-13 06:00N 41°30' W 081°42'0 0.0 130 / 61030.3 -4.8 15.6
2017-Mar-13 05:00N 41°30' W 081°42'0 0.0 140 / 51030.0 -4.4 15.7
2017-Mar-13 04:00N 41°30' W 081°42'0 0.0 130 / 81030.0 -4.4 15.7
2017-Mar-13 03:00N 41°30' W 081°42'0 0.0 120 / 81030.3 -4.4 15.7
2017-Mar-13 02:00N 41°30' W 081°42'0 0.0 130 / 81030.3 -4.5 15.4
2017-Mar-13 01:00N 41°30' W 081°42'0 0.0 140 / 51030.6 -4.6 15.2
2017-Mar-13 00:00N 41°30' W 081°42'0 0.0 170 / 11031.0 -4.9 15.2
2017-Mar-12 23:00N 41°30' W 081°42'0 0.0 1031.3 -4.8 15.5
2017-Mar-12 22:00N 41°30' W 081°42'0 0.0 320 / 61031.7 -4.6 16.8
2017-Mar-12 21:00N 41°30' W 081°42'0 0.0 310 / 61031.3 -4.9 16.8
2017-Mar-12 20:00N 41°30' W 081°42'0 0.0 280 / 51031.0 -4.8 16.8
2017-Mar-12 19:00N 41°30' W 081°42'0 0.0 350 / 111031.0 -5.5 16.4
2017-Mar-12 18:00N 41°30' W 081°42'0 0.0 340 / 91031.3 -4.2 16.2
2017-Mar-12 17:00N 41°30' W 081°42'0 0.0 290 / 91031.7 -4.5 16.0
2017-Mar-12 16:00N 41°30' W 081°42'0 0.0 340 / 81031.3 -5.2 15.9
2017-Mar-12 15:00N 41°30' W 081°42'0 0.0 330 / 101031.0 -5.8 16.1
2017-Mar-12 14:00N 41°30' W 081°42'0 0.0 340 / 71031.0 -5.5 16.1
2017-Mar-12 13:00N 41°30' W 081°42'0 0.0 340 / 121030.3 -5.8 16.2
2017-Mar-12 12:00N 41°30' W 081°42'0 0.0 340 / 101029.6 -5.7 15.9
2017-Mar-12 11:00N 41°30' W 081°42'0 0.0 330 / 91029.3 -5.6 16.3
2017-Mar-12 10:00N 41°30' W 081°42'0 0.0 340 / 101029.3 -5.4 16.3
2017-Mar-12 09:00N 41°30' W 081°42'0 0.0 330 / 81028.6 -4.2 16.7
2017-Mar-12 08:00N 41°30' W 081°42'0 0.0 040 / 81028.6 -4.8 16.6
2017-Mar-12 07:00N 41°30' W 081°42'0 0.0 350 / 101028.9 -4.2 16.6
2017-Mar-12 06:00N 41°30' W 081°42'0 0.0 330 / 91028.3 -3.3 16.9
2017-Mar-12 05:00N 41°30' W 081°42'0 0.0 360 / 161027.9 -3.1 14.8
2017-Mar-12 03:00N 41°30' W 081°42'0 0.0 220 / 71028.6 -3.7 15.0
2017-Mar-12 02:00N 41°30' W 081°42'0 0.0 220 / 61028.6 -3.8 15.0
2017-Mar-12 01:00N 41°30' W 081°42'0 0.0 210 / 71028.3 -3.9 15.1
2017-Mar-12 00:00N 41°30' W 081°42'0 0.0 300 / 131028.3 -3.8 14.8
2017-Mar-11 23:00N 41°30' W 081°42'0 0.0 310 / 141028.3 -4.1 15.1
2017-Mar-11 22:00N 41°30' W 081°42'0 0.0 320 / 121028.6 -4.5 15.1
2017-Mar-11 21:00N 41°30' W 081°42'0 0.0 300 / 161029.3 -5.1 15.1
2017-Mar-11 20:00N 41°30' W 081°42'0 0.0 280 / 141029.6 -5.7 15.1
2017-Mar-11 19:00N 41°30' W 081°42'0 0.0 300 / 191029.6 -6.5 15.0
2017-Mar-11 18:00N 41°30' W 081°42'0 0.0 290 / 171029.6 -6.6 15.1
2017-Mar-11 17:00N 41°30' W 081°42'0 0.0 300 / 201029.6 -7.0 15.0
2017-Mar-11 16:00N 41°30' W 081°42'0 0.0 300 / 231029.3 -7.1 15.0
2017-Mar-11 15:00N 41°30' W 081°42'0 0.0 310 / 261029.3 -7.7 15.2
2017-Mar-11 14:00N 41°30' W 081°42'0 0.0 310 / 311028.3 -7.5 15.0
2017-Mar-11 13:00N 41°30' W 081°42'0 0.0 320 / 251028.6 -7.5 15.0
2017-Mar-11 12:00N 41°30' W 081°42'0 0.0 300 / 231027.9 -7.7 15.2
2017-Mar-11 11:00N 41°30' W 081°42'0 0.0 310 / 241027.6 -7.3 15.2
2017-Mar-11 10:00N 41°30' W 081°42'0 0.0 330 / 201027.6 -7.6 15.4
2017-Mar-11 09:00N 41°30' W 081°42'0 0.0 320 / 201026.9 -7.9 15.4
2017-Mar-11 08:00N 41°30' W 081°42'0 0.0 320 / 221026.9 -7.7 15.5
2017-Mar-11 07:00N 41°30' W 081°42'0 0.0 340 / 191026.2 -7.2 15.5
2017-Mar-11 06:00N 41°30' W 081°42'0 0.0 330 / 211026.2 -6.6 15.6
2017-Mar-11 05:00N 41°30' W 081°42'0 0.0 320 / 231025.9 -6.2 15.7
2017-Mar-11 03:00N 41°30' W 081°42'0 0.0 330 / 241025.2 -4.6 15.9
2017-Mar-11 02:00N 41°30' W 081°42'0 0.0 320 / 271024.2 -4.1 16.0
2017-Mar-11 01:00N 41°30' W 081°42'0 0.0 340 / 251024.2 -3.2 15.7
2017-Mar-11 00:00N 41°30' W 081°42'0 0.0 320 / 221023.9 -3.3 15.6
2017-Mar-10 23:00N 41°30' W 081°42'0 0.0 320 / 241023.2 -3.4 15.4
2017-Mar-10 22:00N 41°30' W 081°42'0 0.0 340 / 201023.5 -3.2 15.5
2017-Mar-10 21:00N 41°30' W 081°42'0 0.0 310 / 261022.9 -3.4 15.5
2017-Mar-10 20:00N 41°30' W 081°42'0 0.0 340 / 241022.9 -4.0 15.7
2017-Mar-10 19:00N 41°30' W 081°42'0 0.0 300 / 211022.2 -2.7 16.0
2017-Mar-10 18:00N 41°30' W 081°42'0 0.0 320 / 211022.5 -3.2 15.8
2017-Mar-10 17:00N 41°30' W 081°42'0 0.0 330 / 261022.2 -3.2 15.9
2017-Mar-10 16:00N 41°30' W 081°42'0 0.0 340 / 221021.8 -3.7 15.7
2017-Mar-10 15:00N 41°30' W 081°42'0 0.0 340 / 201021.2 -1.4 15.6
2017-Mar-10 14:00N 41°30' W 081°42'0 0.0 350 / 251020.5 -1.3 15.8
2017-Mar-10 13:00N 41°30' W 081°42'0 0.0 1019.8 -0.4 15.7
2017-Mar-10 12:00N 41°30' W 081°42'0 0.0 1019.1 -0.3 15.8
2017-Mar-10 11:00N 41°30' W 081°42'0 0.0 360 / 201018.5 -0.3 15.9
2017-Mar-10 10:00N 41°30' W 081°42'0 0.0 350 / 181017.8 -0.6 15.8
2017-Mar-10 09:00N 41°30' W 081°42'0 0.0 330 / 121016.4 1.3 15.8
2017-Mar-10 08:00N 41°30' W 081°42'0 0.0 350 / 71016.1 1.5 15.7
2017-Mar-10 07:00N 41°30' W 081°42'0 0.0 330 / 81016.4 1.4 15.7
2017-Mar-10 06:00N 41°30' W 081°42'0 0.0 330 / 81016.1 1.4 15.9
2017-Mar-10 05:00N 41°30' W 081°42'0 0.0 210 / 61017.1 1.6 16.2
2017-Mar-10 03:00N 41°30' W 081°42'0 0.0 300 / 21019.1 1.0 15.7
2017-Mar-10 02:00N 41°30' W 081°42'0 0.0 120 / 341019.1 0.5 15.4
2017-Mar-10 01:00N 41°30' W 081°42'0 0.0 030 / 151019.8 0.8 15.5
2017-Mar-10 00:00N 41°30' W 081°42'0 0.0 010 / 151019.8 1.7 15.7
2017-Mar-09 23:00N 41°30' W 081°42'0 0.0 050 / 121019.8 2.8 15.8
2017-Mar-09 22:00N 41°30' W 081°42'0 0.0 040 / 121019.5 2.6 15.6
2017-Mar-09 21:00N 41°30' W 081°42'0 0.0 020 / 61019.8 2.8 15.6
2017-Mar-09 20:00N 41°30' W 081°42'0 0.0 050 / 81019.8 2.4 15.6
2017-Mar-09 19:00N 41°30' W 081°42'0 0.0 340 / 81020.1 3.4 15.6
2017-Mar-09 18:00N 41°30' W 081°42'0 0.0 350 / 61021.2 3.5 15.5
2017-Mar-09 17:00N 41°30' W 081°42'0 0.0 330 / 51021.5 3.1 15.4
2017-Mar-09 16:00N 41°30' W 081°42'0 0.0 300 / 81021.8 2.9 15.3
2017-Mar-09 15:00N 41°30' W 081°42'0 0.0 310 / 121022.2 2.9 15.3
2017-Mar-09 14:00N 41°30' W 081°42'0 0.0 290 / 51021.8 3.0 15.3
2017-Mar-09 13:00N 41°30' W 081°42'0 0.0 260 / 31022.2 2.8 15.4
2017-Mar-09 12:00N 41°30' W 081°42'0 0.0 320 / 101021.5 3.0 15.6
2017-Mar-09 11:00N 41°30' W 081°42'0 0.0 310 / 151020.8 3.7 15.2
2017-Mar-09 10:00N 41°30' W 081°42'0 0.0 280 / 161020.1 5.0 15.2
2017-Mar-09 09:00N 41°30' W 081°42'0 0.0 270 / 191019.8 6.5 15.2
2017-Mar-09 08:00N 41°30' W 081°42'0 0.0 280 / 171019.5 7.0 15.1
2017-Mar-09 07:00N 41°30' W 081°42'0 0.0 280 / 241019.1 7.9 15.0
2017-Mar-09 06:00N 41°30' W 081°42'0 0.0 270 / 211018.8 8.4 15.1
2017-Mar-09 05:00N 41°30' W 081°42'0 0.0 280 / 201018.5 9.1 15.2
2017-Mar-09 04:00N 41°30' W 081°42'0 0.0 270 / 201018.1 9.3 15.3
2017-Mar-09 03:00N 41°30' W 081°42'0 0.0 260 / 271017.1 9.8 15.2
2017-Mar-09 02:00N 41°30' W 081°42'0 0.0 250 / 281016.1 10.5 15.3
2017-Mar-09 01:00N 41°30' W 081°42'0 0.0 270 / 211015.4 11.1 15.4
2017-Mar-09 00:00N 41°30' W 081°42'0 0.0 270 / 241014.7 11.4 15.4
2017-Mar-08 23:00N 41°30' W 081°42'0 0.0 250 / 251013.4 11.8 15.5
2017-Mar-08 22:00N 41°30' W 081°42'0 0.0 270 / 311012.7 11.9 15.6
2017-Mar-08 21:00N 41°30' W 081°42'0 0.0 260 / 341011.7 12.3 15.6
2017-Mar-08 20:00N 41°30' W 081°42'0 0.0 240 / 321012.0 12.3 15.4
2017-Mar-08 19:00N 41°30' W 081°42'0 0.0 250 / 321012.0 11.5 15.2
2017-Mar-08 18:00N 41°30' W 081°42'0 0.0 250 / 281013.4 10.9 15.2
2017-Mar-08 17:00N 41°30' W 081°42'0 0.0 240 / 341013.7 10.5 15.8
2017-Mar-08 16:00N 41°30' W 081°42'0 0.0 240 / 251014.4 10.0 15.9
2017-Mar-08 15:00N 41°30' W 081°42'0 0.0 240 / 201015.4 8.8 16.0
2017-Mar-08 14:00N 41°30' W 081°42'0 0.0 230 / 211015.7 7.8 16.1
2017-Mar-08 13:00N 41°30' W 081°42'0 0.0 200 / 151015.7 6.6 16.1
2017-Mar-08 12:00N 41°30' W 081°42'0 0.0 240 / 151016.8 6.3 16.4
2017-Mar-08 11:00N 41°30' W 081°42'0 0.0 200 / 151015.7 5.7 16.5
2017-Mar-08 10:00N 41°30' W 081°42'0 0.0 210 / 161015.7 5.7 16.6
2017-Mar-08 09:00N 41°30' W 081°42'0 0.0 200 / 151016.1 5.5 16.6
2017-Mar-08 08:00N 41°30' W 081°42'0 0.0 200 / 131016.8 5.3 16.1
2017-Mar-08 07:00N 41°30' W 081°42'0 0.0 230 / 91017.4 6.5 16.0
2017-Mar-08 06:00N 41°30' W 081°42'0 0.0 240 / 121016.8 7.4 16.1
2017-Mar-08 05:00N 41°30' W 081°42'0 0.0 260 / 121016.4 8.1 16.0
2017-Mar-08 04:00N 41°30' W 081°42'0 0.0 270 / 121015.7 8.6 16.2
2017-Mar-08 03:00N 41°30' W 081°42'0 0.0 270 / 141015.7 8.1 16.1
2017-Mar-08 02:00N 41°30' W 081°42'0 0.0 280 / 161015.1 8.2 16.2
2017-Mar-08 01:00N 41°30' W 081°42'0 0.0 270 / 151015.1 9.3 16.2
2017-Mar-08 00:00N 41°30' W 081°42'0 0.0 250 / 151014.0 8.9 16.2
2017-Mar-07 23:00N 41°30' W 081°42'0 0.0 270 / 91013.0 7.2 16.0
2017-Mar-07 22:00N 41°30' W 081°42'0 0.0 220 / 191012.0 12.0 16.2
2017-Mar-07 21:00N 41°30' W 081°42'0 0.0 190 / 61011.0 11.6 15.9
2017-Mar-07 20:00N 41°30' W 081°42'0 0.0 210 / 171011.0 14.8 16.2
2017-Mar-07 19:00N 41°30' W 081°42'0 0.0 200 / 181011.0 15.4 16.0
2017-Mar-07 18:00N 41°30' W 081°42'0 0.0 180 / 211010.7 14.7 16.1
2017-Mar-07 17:00N 41°30' W 081°42'0 0.0 200 / 221012.0 13.7 16.2
2017-Mar-07 16:00N 41°30' W 081°42'0 0.0 200 / 221012.4 14.2 16.3
2017-Mar-07 15:00N 41°30' W 081°42'0 0.0 200 / 221013.4 13.7 16.5
2017-Mar-07 14:00N 41°30' W 081°42'0 0.0 200 / 211013.7 13.3 16.4
2017-Mar-07 13:00N 41°30' W 081°42'0 0.0 200 / 201012.7 13.1 16.3
2017-Mar-07 12:00N 41°30' W 081°42'0 0.0 180 / 191012.0 13.6 16.2
2017-Mar-07 11:00N 41°30' W 081°42'0 0.0 190 / 201012.4 14.5 16.0
2017-Mar-07 10:00N 41°30' W 081°42'0 0.0 180 / 231012.0 14.5 15.8
2017-Mar-07 09:00N 41°30' W 081°42'0 0.0 180 / 221013.0 14.2 15.9
2017-Mar-07 08:00N 41°30' W 081°42'0 0.0 180 / 181014.4 13.4 16.3
2017-Mar-07 07:00N 41°30' W 081°42'0 0.0 180 / 181015.1 13.3 16.1
2017-Mar-07 06:00N 41°30' W 081°42'0 0.0 180 / 131015.1 12.5 17.2
2017-Mar-07 05:00N 41°30' W 081°42'0 0.0 130 / 91016.1 11.9 17.9
2017-Mar-07 04:00N 41°30' W 081°42'0 0.0 200 / 121017.4 12.9 18.2
2017-Mar-07 03:00N 41°30' W 081°42'0 0.0 180 / 121018.1 11.7 18.1
2017-Mar-07 02:00N 41°30' W 081°42'0 0.0 160 / 81018.8 12.2 17.7
2017-Mar-07 01:00N 41°30' W 081°42'0 0.0 140 / 111019.1 11.8 17.7
2017-Mar-07 00:00N 41°30' W 081°42'0 0.0 160 / 101019.5 11.7 17.7
2017-Mar-06 23:00N 41°30' W 081°42'0 0.0 140 / 101019.8 11.3 17.7
2017-Mar-06 22:00N 41°30' W 081°42'0 0.0 200 / 131020.1 12.0 17.6
2017-Mar-06 21:00N 41°30' W 081°42'0 0.0 190 / 141020.5 12.1 17.3
2017-Mar-06 20:00N 41°30' W 081°42'0 0.0 150 / 91020.5 12.2 16.8
2017-Mar-06 19:00N 41°30' W 081°42'0 0.0 200 / 171021.2 11.9 15.5
2017-Mar-06 18:00N 41°30' W 081°42'0 0.0 200 / 191021.5 14.1 15.8
2017-Mar-06 17:00N 41°30' W 081°42'0 0.0 200 / 141022.2 13.9 15.7
2017-Mar-06 16:00N 41°30' W 081°42'0 0.0 180 / 151022.9 13.3 15.8
2017-Mar-06 15:00N 41°30' W 081°42'0 0.0 160 / 101023.2 11.0 15.9
2017-Mar-06 14:00N 41°30' W 081°42'0 0.0 150 / 101023.5 10.0 15.6
2017-Mar-06 13:00N 41°30' W 081°42'0 0.0 180 / 101023.9 10.5 15.6
2017-Mar-06 12:00N 41°30' W 081°42'0 0.0 180 / 101023.9 10.0 15.7
2017-Mar-06 11:00N 41°30' W 081°42'0 0.0 160 / 101023.5 8.5 15.3
2017-Mar-06 10:00N 41°30' W 081°42'0 0.0 150 / 121023.2 8.2 15.4
2017-Mar-06 09:00N 41°30' W 081°42'0 0.0 150 / 91023.2 8.2 15.4
2017-Mar-06 08:00N 41°30' W 081°42'0 0.0 150 / 111023.5 7.6 15.6
2017-Mar-06 07:00N 41°30' W 081°42'0 0.0 150 / 151023.9 7.2 16.0
2017-Mar-06 06:00N 41°30' W 081°42'0 0.0 160 / 151024.2 7.1 16.1
2017-Mar-06 05:00N 41°30' W 081°42'0 0.0 150 / 151024.2 6.8 16.0
2017-Mar-06 04:00N 41°30' W 081°42'0 0.0 150 / 151024.9 6.6 16.1
2017-Mar-06 03:00N 41°30' W 081°42'0 0.0 160 / 151025.6 6.7 16.3
2017-Mar-06 02:00N 41°30' W 081°42'0 0.0 150 / 161026.2 6.9 16.0
2017-Mar-06 01:00N 41°30' W 081°42'0 0.0 150 / 171026.6 7.1 15.8
2017-Mar-06 00:00N 41°30' W 081°42'0 0.0 140 / 161026.6 7.6 15.8
2017-Mar-05 23:00N 41°30' W 081°42'0 0.0 160 / 101026.9 7.9 15.7
2017-Mar-05 22:00N 41°30' W 081°42'0 0.0 150 / 111027.6 8.2 15.9
2017-Mar-05 21:00N 41°30' W 081°42'0 0.0 150 / 121028.3 7.6 15.9
2017-Mar-05 20:00N 41°30' W 081°42'0 0.0 140 / 121028.6 6.3 15.8
2017-Mar-05 19:00N 41°30' W 081°42'0 0.0 140 / 81030.0 5.1 15.9
2017-Mar-05 18:00N 41°30' W 081°42'0 0.0 140 / 101031.3 3.6 16.1
2017-Mar-05 17:00N 41°30' W 081°42'0 0.0 140 / 121033.0 1.1 16.6
2017-Mar-05 16:00N 41°30' W 081°42'0 0.0 130 / 151033.7 -1.2 16.2
2017-Mar-05 15:00N 41°30' W 081°42'0 0.0 150 / 181034.7 -3.7 16.2
2017-Mar-05 14:00N 41°30' W 081°42'0 0.0 140 / 161034.7 -5.0 16.2
2017-Mar-05 13:00N 41°30' W 081°42'0 0.0 150 / 181035.0 -6.2 16.0
2017-Mar-05 12:00N 41°30' W 081°42'0 0.0 140 / 171035.0 -6.5 15.6
2017-Mar-05 11:00N 41°30' W 081°42'0 0.0 140 / 111035.4 -6.6 15.6
2017-Mar-05 10:00N 41°30' W 081°42'0 0.0 130 / 141035.4 -6.6 15.6
2017-Mar-05 09:00N 41°30' W 081°42'0 0.0 130 / 161035.7 -6.3 15.4
2017-Mar-05 08:00N 41°30' W 081°42'0 0.0 140 / 91036.7 -6.1 15.3
2017-Mar-05 07:00N 41°30' W 081°42'0 0.0 130 / 101037.4 -4.3 17.0
2017-Mar-05 06:00N 41°30' W 081°42'0 0.0 100 / 61037.8 -5.8 16.7
2017-Mar-05 05:00N 41°30' W 081°42'0 0.0 120 / 51037.8 -5.7 16.5
2017-Mar-05 04:00N 41°30' W 081°42'0 0.0 070 / 41037.8 -4.9 17.1
2017-Mar-05 03:00N 41°30' W 081°42'0 0.0 340 / 41037.8 -4.0 16.7
2017-Mar-05 02:00N 41°30' W 081°42'0 0.0 330 / 41037.8 -4.7 16.7
2017-Mar-05 01:00N 41°30' W 081°42'0 0.0 040 / 91037.4 -4.3 16.9
2017-Mar-05 00:00N 41°30' W 081°42'0 0.0 040 / 61037.4 -3.6 16.5
2017-Mar-04 23:00N 41°30' W 081°42'0 0.0 030 / 41037.8 -3.2 16.4
2017-Mar-04 22:00N 41°30' W 081°42'0 0.0 040 / 91037.8 -3.5 16.9
2017-Mar-04 21:00N 41°30' W 081°42'0 0.0 360 / 101037.8 -3.5 16.7
2017-Mar-04 20:00N 41°30' W 081°42'0 0.0 040 / 101037.8 -4.6 16.2
2017-Mar-04 19:00N 41°30' W 081°42'0 0.0 010 / 71038.8 -4.5 15.0
2017-Mar-04 18:00N 41°30' W 081°42'0 0.0 010 / 71039.8 -4.5 15.2
2017-Mar-04 17:00N 41°30' W 081°42'0 0.0 010 / 51040.1 -4.3 15.0
2017-Mar-04 16:00N 41°30' W 081°42'0 0.0 010 / 61040.1 -5.0 15.1
2017-Mar-04 15:00N 41°30' W 081°42'0 0.0 020 / 81039.8 -5.3 14.9
2017-Mar-04 14:00N 41°30' W 081°42'0 0.0 360 / 91039.1 -5.2 15.2
2017-Mar-04 13:00N 41°30' W 081°42'0 0.0 360 / 121038.1 -5.4 15.2
2017-Mar-04 12:00N 41°30' W 081°42'0 0.0 350 / 91037.4 -5.6 15.2
2017-Mar-04 11:00N 41°30' W 081°42'0 0.0 350 / 131036.7 -5.1 15.1
2017-Mar-04 10:00N 41°30' W 081°42'0 0.0 340 / 151036.4 -4.7 15.2
2017-Mar-04 09:00N 41°30' W 081°42'0 0.0 330 / 121036.1 -4.1 18.0
2017-Mar-04 08:00N 41°30' W 081°42'   170 / 81035.7 -3.6 17.4

Dump ship's entire track history